Schroeder, Minnesota
Current Conditions -  °F | °C
As of 5:53 PM on Friday 28 Nov 2014 (Local Time) from KCKC Reporting Station
Light Snow Light Snow  
Wind Chill:   Ceiling: 700
Heat Index: 16°   Visibility: 7mi
Dew Point: 10°   Wind: 5mph
Humidity: 79%   Direction: 70°ENE
Pressure: 29.86"   Gusts: NA
Location:  47.54°N, 90.89°W
Report Text: KCKC 282353Z AUTO 07004KT 7SM -SN OVC007 M09/M12 A2986 RMK AO2
Loading
Personal Weather Stations






























Interactive Weather Map New forecast layout! Learn more

10-Day Weather Forecast

Advertisements
Track Severe Weather on mobile